Time;durP1;ratioP1;P1;durP2;ratioP2;P2;SDS_P1;SDS_P2;PMS_P1;PMS_P2;Temp;Humidity;BMP_temperature;BMP_pressure;BME280_temperature;BME280_humidity;BME280_pressure;Samples;Min_cycle;Max_cycle;Signal;HPM_P1;HPM_P2
2022/07/26 00:01:01;;;;;;;6.05;3.78;;;;;;;19.78;76.04;100891.59;6172135;28;20573;-78
2022/07/26 00:04:24;;;;;;;6.53;4.53;;;;;;;19.49;77.20;100882.66;6176219;28;20233;-78
2022/07/26 00:07:46;;;;;;;5.50;2.67;;;;;;;19.97;74.95;100891.97;6177210;28;20246;-79
2022/07/26 00:11:07;;;;;;;7.55;3.30;;;;;;;19.70;75.64;100890.88;6177936;28;20234;-79
2022/07/26 00:14:28;;;;;;;6.10;3.60;;;;;;;19.54;76.36;100902.09;6169193;28;21069;-79
2022/07/26 00:17:50;;;;;;;6.88;3.15;;;;;;;19.34;76.30;100896.38;6166698;28;20313;-80
2022/07/26 00:21:12;;;;;;;10.88;4.35;;;;;;;18.97;77.53;100886.44;6176999;28;20238;-77
2022/07/26 00:24:33;;;;;;;6.97;2.97;;;;;;;19.04;76.88;100898.31;6176607;28;20267;-82
2022/07/26 00:27:54;;;;;;;6.10;2.70;;;;;;;19.65;74.50;100896.94;6174283;28;20226;-80
2022/07/26 00:31:15;;;;;;;6.35;2.90;;;;;;;19.63;74.24;100884.53;6173276;28;20233;-78
2022/07/26 00:34:36;;;;;;;6.05;2.58;;;;;;;19.24;75.87;100893.06;6177969;28;20983;-81
2022/07/26 00:37:58;;;;;;;4.75;2.83;;;;;;;19.55;74.52;100893.69;6174505;28;20257;-81
2022/07/26 00:41:19;;;;;;;5.35;2.78;;;;;;;19.67;74.38;100892.13;6175316;28;20233;-78
2022/07/26 00:44:42;;;;;;;7.05;2.55;;;;;;;19.66;74.45;100904.13;6181404;28;20611;-81
2022/07/26 00:48:03;;;;;;;4.45;3.03;;;;;;;19.34;75.70;100895.56;6175863;28;20257;-79
2022/07/26 00:51:24;;;;;;;5.32;2.88;;;;;;;19.25;76.20;100891.19;6192286;28;20225;-83
2022/07/26 00:54:47;;;;;;;4.03;2.22;;;;;;;19.39;75.47;100907.59;6181637;28;20227;-80
2022/07/26 00:58:08;;;;;;;6.88;2.65;;;;;;;18.98;76.89;100906.41;6177373;28;20226;-79
2022/07/26 01:01:28;;;;;;;5.05;2.20;;;;;;;19.46;75.28;100900.28;6170642;28;20233;-79
2022/07/26 01:04:49;;;;;;;4.68;2.78;;;;;;;19.06;76.73;100907.16;6172973;28;20313;-80
2022/07/26 01:08:11;;;;;;;7.25;3.40;;;;;;;18.87;77.41;100898.69;6175508;28;20226;-80
2022/07/26 01:11:33;;;;;;;5.05;3.03;;;;;;;19.13;76.61;100901.75;6177728;28;20234;-81
2022/07/26 01:14:54;;;;;;;6.03;3.17;;;;;;;19.02;76.90;100899.53;6169746;28;20230;-81
2022/07/26 01:18:16;;;;;;;6.82;2.90;;;;;;;18.89;77.55;100897.47;6173939;28;20226;-80
2022/07/26 01:21:38;;;;;;;3.75;2.28;;;;;;;19.29;76.11;100896.09;6176145;28;20233;-79
2022/07/26 01:24:59;;;;;;;6.55;2.92;;;;;;;18.86;77.74;100892.38;6174143;28;20229;-81
2022/07/26 01:28:20;;;;;;;5.22;2.45;;;;;;;19.11;76.90;100884.69;6169400;28;20221;-80
2022/07/26 01:31:41;;;;;;;7.07;3.13;;;;;;;19.05;76.62;100891.78;6183380;28;20811;-78
2022/07/26 01:35:03;;;;;;;7.60;2.78;;;;;;;18.95;76.91;100887.66;6166421;28;20238;-77
2022/07/26 01:38:26;;;;;;;4.20;2.63;;;;;;;18.79;77.39;100885.13;6171507;28;20231;-78
2022/07/26 01:41:48;;;;;;;5.60;2.63;;;;;;;18.97;76.77;100885.56;6175520;28;20361;-78
2022/07/26 01:45:10;;;;;;;7.85;3.20;;;;;;;18.78;76.67;100884.28;6175787;28;20234;-78
2022/07/26 01:48:31;;;;;;;5.15;2.83;;;;;;;18.84;77.17;100885.38;6173861;28;20253;-77
2022/07/26 01:51:52;;;;;;;9.13;4.25;;;;;;;18.72;77.58;100884.16;6173522;28;20326;-79
2022/07/26 01:55:14;;;;;;;7.18;2.88;;;;;;;19.31;75.31;100880.34;6171696;28;20444;-78
2022/07/26 01:58:35;;;;;;;7.25;3.00;;;;;;;18.89;76.92;100882.94;6171273;28;20773;-79
2022/07/26 02:01:56;;;;;;;4.93;2.80;;;;;;;19.03;76.29;100882.94;6176857;28;20234;-78
2022/07/26 02:05:17;;;;;;;6.88;2.83;;;;;;;19.05;76.48;100878.13;6179731;28;22139;-81
2022/07/26 02:08:38;;;;;;;7.03;3.00;;;;;;;19.00;76.26;100888.75;6177158;28;20336;-81
2022/07/26 02:12:02;;;;;;;9.60;2.92;;;;;;;19.42;75.06;100882.56;6176575;28;20656;-80
2022/07/26 02:15:23;;;;;;;9.50;2.58;;;;;;;18.97;76.26;100883.69;6177082;28;20320;-80
2022/07/26 02:18:44;;;;;;;7.45;3.80;;;;;;;19.12;76.37;100886.41;6187814;28;20222;-78
2022/07/26 02:22:05;;;;;;;10.35;3.40;;;;;;;19.43;74.98;100886.16;6175461;28;20926;-80
2022/07/26 02:25:26;;;;;;;6.75;2.95;;;;;;;19.02;76.53;100894.06;6176802;28;20600;-77
2022/07/26 02:28:49;;;;;;;9.93;3.45;;;;;;;18.86;76.97;100891.50;6173815;28;20241;-77
2022/07/26 02:32:10;;;;;;;8.55;3.22;;;;;;;19.23;75.64;100882.34;6174731;28;20249;-80
2022/07/26 02:35:32;;;;;;;9.55;3.78;;;;;;;18.80;76.97;100897.72;6178521;28;20289;-76
2022/07/26 02:38:53;;;;;;;10.00;4.05;;;;;;;19.03;76.12;100890.28;6177694;28;20222;-79
2022/07/26 02:42:14;;;;;;;7.75;3.45;;;;;;;18.82;77.40;100893.78;6171559;28;20242;-77
2022/07/26 02:45:36;;;;;;;8.57;3.53;;;;;;;18.78;76.82;100900.66;6172716;28;20222;-77
2022/07/26 02:48:58;;;;;;;8.45;3.70;;;;;;;18.85;77.15;100889.81;6172284;28;20227;-79
2022/07/26 02:52:20;;;;;;;7.05;3.13;;;;;;;18.78;77.35;100892.47;6172641;28;20255;-76
2022/07/26 02:55:41;;;;;;;8.27;3.75;;;;;;;18.80;77.69;100892.28;6175209;28;20237;-76
2022/07/26 02:59:02;;;;;;;9.15;3.25;;;;;;;18.70;77.95;100897.16;6176107;28;20238;-78
2022/07/26 03:02:24;;;;;;;11.38;3.65;;;;;;;18.95;77.18;100893.97;6150817;28;20698;-78
2022/07/26 03:05:46;;;;;;;7.32;3.65;;;;;;;18.84;77.47;100909.97;6175667;28;20234;-79
2022/07/26 03:09:06;;;;;;;6.80;2.85;;;;;;;19.05;76.53;100910.06;6178183;28;20632;-77
2022/07/26 03:12:27;;;;;;;11.02;4.78;;;;;;;18.97;76.89;100916.50;6173264;28;20324;-77
2022/07/26 03:15:48;;;;;;;7.78;3.58;;;;;;;18.67;78.01;100920.25;6176464;28;20241;-76
2022/07/26 03:19:10;;;;;;;10.30;3.20;;;;;;;18.72;78.22;100922.41;6168003;28;20234;-78
2022/07/26 03:22:31;;;;;;;12.20;3.85;;;;;;;18.66;78.30;100918.56;6170190;28;20600;-76
2022/07/26 03:25:52;;;;;;;7.35;3.58;;;;;;;18.83;77.46;100917.34;6174165;28;21018;-76
2022/07/26 03:29:14;;;;;;;9.45;2.75;;;;;;;18.73;77.94;100922.22;6171901;28;21039;-77
2022/07/26 03:32:35;;;;;;;10.98;3.78;;;;;;;18.57;78.86;100925.13;6172386;28;20225;-77
2022/07/26 03:35:58;;;;;;;8.55;3.65;;;;;;;18.64;78.83;100926.09;6173662;28;20253;-77
2022/07/26 03:39:19;;;;;;;8.75;3.55;;;;;;;18.82;78.06;100926.56;6178388;28;20298;-78
2022/07/26 03:42:40;;;;;;;12.80;3.50;;;;;;;18.82;78.25;100918.38;6183166;28;20245;-78
2022/07/26 03:46:01;;;;;;;9.70;3.58;;;;;;;18.63;79.11;100923.56;6181685;28;20320;-77
2022/07/26 03:49:22;;;;;;;9.07;3.70;;;;;;;19.17;77.24;100921.38;6181853;28;20623;-77
2022/07/26 03:52:44;;;;;;;10.52;2.95;;;;;;;19.04;77.57;100922.91;6184328;28;20226;-78
2022/07/26 03:59:44;;;;;;;6.22;3.90;;;;;;;18.84;78.12;100908.09;6183782;28;20238;-78
2022/07/26 04:03:05;;;;;;;9.07;4.07;;;;;;;18.96;77.93;100916.69;6181207;28;20222;-78
2022/07/26 04:06:26;;;;;;;10.18;3.35;;;;;;;18.90;78.13;100917.44;6183937;28;20230;-78
2022/07/26 04:09:49;;;;;;;11.02;3.90;;;;;;;18.81;78.67;100919.41;6173899;28;20221;-75
2022/07/26 04:13:09;;;;;;;9.05;4.88;;;;;;;19.09;77.53;100923.16;6181769;28;20233;-76
2022/07/26 04:16:31;;;;;;;12.00;4.05;;;;;;;19.27;76.94;100913.72;6187087;28;20301;-79
2022/07/26 04:19:52;;;;;;;7.28;3.50;;;;;;;19.03;78.04;100921.19;6182095;28;20242;-77
2022/07/26 04:23:13;;;;;;;5.45;3.40;;;;;;;18.85;78.99;100923.47;6190967;28;20230;-76
2022/07/26 04:26:35;;;;;;;22.80;4.80;;;;;;;18.89;78.87;100923.94;6189539;28;20304;-77
2022/07/26 04:29:56;;;;;;;8.45;4.05;;;;;;;18.70;79.53;100941.72;6190531;28;20237;-76
2022/07/26 04:33:17;;;;;;;8.18;3.60;;;;;;;19.17;77.74;100935.88;6195461;28;20245;-76
2022/07/26 04:36:38;;;;;;;10.65;3.30;;;;;;;19.30;77.41;100938.78;6191980;28;20229;-78
2022/07/26 04:39:59;;;;;;;10.65;3.80;;;;;;;19.50;76.85;100937.19;6192876;28;20234;-76
2022/07/26 04:43:22;;;;;;;10.75;4.28;;;;;;;19.39;76.81;100948.63;6186047;28;20230;-80
2022/07/26 04:46:43;;;;;;;10.00;4.22;;;;;;;19.21;77.64;100947.28;6188599;28;20230;-77
2022/07/26 04:50:05;;;;;;;7.72;3.75;;;;;;;19.28;77.21;100945.47;6190835;28;20327;-78
2022/07/26 04:53:27;;;;;;;7.53;3.50;;;;;;;19.44;76.54;100940.66;6188128;28;20242;-77
2022/07/26 04:56:48;;;;;;;9.65;4.22;;;;;;;19.67;75.79;100940.53;6179876;28;20239;-77
2022/07/26 05:00:12;;;;;;;6.10;3.53;;;;;;;19.71;75.31;100948.13;6168276;28;20313;-77
2022/07/26 05:03:33;;;;;;;10.43;3.90;;;;;;;19.48;75.95;100942.00;6171881;28;20321;-77
2022/07/26 05:07:01;;;;;;;8.02;4.32;;;;;;;19.80;75.65;100948.88;6169483;28;20257;-79
2022/07/26 05:10:27;;;;;;;8.68;3.85;;;;;;;20.01;75.01;100951.63;6170932;28;20226;-78
2022/07/26 05:13:48;;;;;;;20.20;17.98;;;;;;;19.73;75.90;100956.16;6172300;28;20233;-77
2022/07/26 05:17:11;;;;;;;7.63;3.78;;;;;;;19.59;76.41;100941.47;6170955;28;20253;-80
2022/07/26 05:20:32;;;;;;;9.93;6.15;;;;;;;19.32;77.23;100941.31;6168466;28;20293;-79
2022/07/26 05:23:54;;;;;;;8.32;3.97;;;;;;;19.57;76.48;100946.28;6168106;28;20230;-80
2022/07/26 05:27:15;;;;;;;10.63;3.92;;;;;;;20.01;75.52;100970.78;6169843;28;20608;-78
2022/07/26 05:30:36;;;;;;;4.03;2.78;;;;;;;19.77;75.71;100971.16;6169075;28;20313;-78
2022/07/26 05:33:58;;;;;;;4.63;2.65;;;;;;;19.61;75.65;100969.50;6164066;28;20231;-77
2022/07/26 05:37:19;;;;;;;2.30;1.52;;;;;;;19.17;78.02;100988.66;6172778;28;20225;-79
2022/07/26 05:40:40;;;;;;;3.55;2.47;;;;;;;18.97;77.74;100984.81;6171249;28;20539;-80
2022/07/26 05:44:02;;;;;;;3.33;1.75;;;;;;;18.93;77.93;100988.94;6183126;28;20229;-78
2022/07/26 05:47:23;;;;;;;2.75;2.20;;;;;;;18.76;79.54;100990.16;6164263;28;20290;-76
2022/07/26 05:50:46;;;;;;;3.45;1.95;;;;;;;18.89;78.65;100995.81;6172332;28;20241;-74
2022/07/26 05:54:22;;;;;;;3.75;2.30;;;;;;;18.72;79.22;100996.16;6161684;28;20245;-76
2022/07/26 05:57:46;;;;;;;3.80;2.03;;;;;;;18.77;79.20;100991.84;6172259;28;20234;-74
2022/07/26 06:01:07;;;;;;;3.17;1.95;;;;;;;19.10;78.06;101001.41;6180130;28;20230;-80
2022/07/26 06:04:28;;;;;;;3.63;2.15;;;;;;;19.22;78.12;100999.03;6178662;28;20233;-79
2022/07/26 06:07:51;;;;;;;4.03;1.70;;;;;;;19.51;76.91;101009.13;6173678;28;20229;-77
2022/07/26 06:11:11;;;;;;;5.07;2.45;;;;;;;19.33;77.42;101003.16;6176302;28;20222;-75
2022/07/26 06:14:33;;;;;;;4.63;2.78;;;;;;;19.23;78.91;101002.63;6177815;28;20225;-76
2022/07/26 06:17:54;;;;;;;3.38;1.75;;;;;;;19.17;78.55;101005.06;6167297;28;20257;-79
2022/07/26 06:21:15;;;;;;;2.88;2.00;;;;;;;19.47;77.53;101021.47;6175041;28;20921;-79
2022/07/26 06:24:37;;;;;;;6.03;2.63;;;;;;;19.48;78.16;101025.94;6165524;28;20230;-77
2022/07/26 06:27:58;;;;;;;4.18;2.25;;;;;;;19.31;78.96;101027.13;6165720;28;20241;-80
2022/07/26 06:31:19;;;;;;;6.15;2.30;;;;;;;19.44;78.30;101025.44;6171453;28;20234;-78
2022/07/26 06:34:40;;;;;;;6.40;3.55;;;;;;;19.52;77.91;101036.31;6163817;28;20352;-76
2022/07/26 06:38:01;;;;;;;3.05;2.35;;;;;;;19.87;76.84;101037.38;6165437;28;21497;-73
2022/07/26 06:41:24;;;;;;;4.93;2.67;;;;;;;19.97;77.00;101029.69;6171942;28;20369;-73
2022/07/26 06:44:45;;;;;;;5.63;3.17;;;;;;;20.07;76.88;101032.13;6174948;28;20230;-74
2022/07/26 06:48:06;;;;;;;4.15;2.28;;;;;;;20.23;75.89;101030.03;6168617;28;20255;-74
2022/07/26 06:51:27;;;;;;;5.95;2.03;;;;;;;20.42;74.47;101039.47;6169917;28;20229;-74
2022/07/26 06:54:49;;;;;;;8.25;2.78;;;;;;;20.45;74.69;101036.34;6162291;28;20644;-75
2022/07/26 06:58:11;;;;;;;3.58;1.50;;;;;;;19.84;74.69;101035.00;6171659;28;20501;-73
2022/07/26 07:01:32;;;;;;;3.90;1.70;;;;;;;19.84;75.66;101044.06;6173243;28;20238;-78
2022/07/26 07:04:53;;;;;;;4.00;2.38;;;;;;;19.87;76.77;101057.38;6169447;28;21330;-76
2022/07/26 07:08:14;;;;;;;4.00;1.77;;;;;;;19.45;76.35;101067.31;6161863;28;20233;-72
2022/07/26 07:11:35;;;;;;;2.20;1.33;;;;;;;19.79;74.87;101078.53;6180749;28;20234;-75
2022/07/26 07:14:58;;;;;;;8.75;2.60;;;;;;;19.70;74.95;101074.19;6171951;28;20297;-74
2022/07/26 07:18:18;;;;;;;1.83;1.30;;;;;;;19.49;75.73;101076.84;6173923;28;20283;-74
2022/07/26 07:21:40;;;;;;;2.40;1.27;;;;;;;19.74;75.55;101079.09;6175849;28;20276;-73
2022/07/26 07:25:01;;;;;;;2.47;1.50;;;;;;;19.87;73.84;101082.00;6168443;28;20233;-75
2022/07/26 07:28:22;;;;;;;6.00;2.13;;;;;;;19.48;74.87;101086.94;6172859;28;20230;-73
2022/07/26 07:31:46;;;;;;;3.05;1.25;;;;;;;20.24;73.12;101094.69;6166996;28;21011;-74
2022/07/26 07:35:07;;;;;;;2.97;1.23;;;;;;;20.28;72.16;101104.19;6172721;28;21042;-73
2022/07/26 07:38:28;;;;;;;2.40;1.17;;;;;;;20.12;72.24;101107.16;6167032;28;20364;-75
2022/07/26 07:41:49;;;;;;;3.95;2.10;;;;;;;21.11;70.25;101109.88;6171673;28;20243;-73
2022/07/26 07:45:11;;;;;;;3.55;1.20;;;;;;;20.20;71.32;101131.72;6171334;28;20230;-74
2022/07/26 07:48:34;;;;;;;1.95;1.10;;;;;;;19.20;74.50;101139.66;6174759;28;20293;-73
2022/07/26 07:51:54;;;;;;;1.35;1.15;;;;;;;19.11;75.53;101163.47;6177539;28;20234;-74
2022/07/26 07:55:15;;;;;;;1.73;1.27;;;;;;;19.30;75.89;101149.31;6170359;28;20264;-71
2022/07/26 07:58:36;;;;;;;1.85;0.70;;;;;;;19.53;74.77;101154.72;6182044;28;20321;-72
2022/07/26 08:01:57;;;;;;;1.65;0.93;;;;;;;19.63;72.95;101156.16;6173395;28;20233;-73
2022/07/26 08:05:19;;;;;;;3.90;1.35;;;;;;;19.62;72.73;101164.56;6182199;28;20233;-75
2022/07/26 08:08:40;;;;;;;2.03;1.15;;;;;;;19.79;72.99;101163.34;6164245;28;20260;-73
2022/07/26 08:12:01;;;;;;;5.28;1.50;;;;;;;19.81;72.62;101164.00;6176216;28;20302;-72
2022/07/26 08:15:22;;;;;;;2.97;1.25;;;;;;;20.30;69.51;101162.38;6175211;28;20234;-73
2022/07/26 08:18:43;;;;;;;2.70;1.50;;;;;;;20.23;70.77;101163.34;6172801;28;20234;-73
2022/07/26 08:22:07;;;;;;;3.78;1.33;;;;;;;20.40;69.24;101167.56;6159694;28;20572;-72
2022/07/26 08:25:28;;;;;;;2.90;0.85;;;;;;;19.86;71.53;101164.28;6163734;28;20317;-73
2022/07/26 08:28:49;;;;;;;2.45;0.88;;;;;;;19.97;70.48;101169.28;6159594;28;20444;-71
2022/07/26 08:32:10;;;;;;;1.73;0.95;;;;;;;20.09;70.56;101175.13;6175467;28;20237;-72
2022/07/26 08:35:31;;;;;;;3.53;1.20;;;;;;;21.08;67.41;101164.28;6174899;28;20791;-73
2022/07/26 08:38:53;;;;;;;5.38;1.75;;;;;;;21.05;66.37;101181.97;6174504;28;20257;-73
2022/07/26 08:42:15;;;;;;;2.00;0.88;;;;;;;21.57;65.36;101184.31;6182129;28;20237;-73
2022/07/26 08:45:37;;;;;;;2.97;1.40;;;;;;;21.02;65.77;101197.94;6167229;28;20345;-74
2022/07/26 08:48:58;;;;;;;4.93;1.33;;;;;;;20.63;66.45;101201.94;6168510;28;20230;-70
2022/07/26 08:52:18;;;;;;;2.58;1.45;;;;;;;21.54;64.24;101212.16;6171551;28;20241;-72
2022/07/26 08:55:41;;;;;;;3.83;1.08;;;;;;;21.49;63.27;101214.63;6169466;28;20226;-72
2022/07/26 08:59:04;;;;;;;5.85;1.80;;;;;;;21.16;65.17;101229.97;6172819;28;20963;-72
2022/07/26 09:02:39;;;;;;;3.38;1.60;;;;;;;21.34;63.68;101227.63;6167788;28;20234;-74
2022/07/26 09:06:11;;;;;;;0.95;0.77;;;;;;;21.72;62.04;101233.59;6178068;28;20236;-75
2022/07/26 09:09:33;;;;;;;1.20;1.10;;;;;;;21.10;63.35;101242.56;6179260;28;20600;-74
2022/07/26 09:12:57;;;;;;;2.25;1.42;;;;;;;21.17;62.70;101250.88;6169291;28;20229;-73
2022/07/26 09:16:19;;;;;;;3.78;0.90;;;;;;;20.79;62.62;101265.81;6163721;28;20578;-72
2022/07/26 09:19:40;;;;;;;4.05;1.25;;;;;;;20.42;64.01;101267.66;6165563;28;20230;-73
2022/07/26 09:23:05;;;;;;;7.15;1.23;;;;;;;20.47;63.99;101265.19;6160003;28;20257;-72
2022/07/26 09:26:27;;;;;;;2.42;1.55;;;;;;;20.88;63.80;101279.19;6170293;28;20241;-74
2022/07/26 09:29:51;;;;;;;3.65;1.27;;;;;;;21.11;62.11;101282.66;6171144;28;20257;-73
2022/07/26 09:33:12;;;;;;;2.22;0.90;;;;;;;21.36;61.64;101283.13;6162750;28;23136;-78
2022/07/26 09:36:33;;;;;;;2.00;0.80;;;;;;;20.93;62.85;101275.88;6170272;28;20223;-78
2022/07/26 09:39:56;;;;;;;3.67;2.08;;;;;;;21.01;62.03;101278.47;6144815;28;20230;-75
2022/07/26 09:43:17;;;;;;;6.03;2.95;;;;;;;21.11;60.63;101290.88;6168202;28;20328;-77
2022/07/26 09:46:52;;;;;;;2.65;1.00;;;;;;;21.51;60.67;101286.63;6171272;28;20562;-77
2022/07/26 09:50:15;;;;;;;3.65;1.13;;;;;;;21.51;57.55;101288.56;6485726;22;20727;-75
2022/07/26 09:53:40;;;;;;;2.72;0.95;;;;;;;21.05;57.90;101294.38;6216306;28;20233;-71
2022/07/26 09:57:01;;;;;;;2.88;1.38;;;;;;;21.92;57.41;101295.91;6220619;28;20228;-77
2022/07/26 10:00:24;;;;;;;2.95;0.70;;;;;;;22.07;56.30;101295.81;6211237;28;20617;-74
2022/07/26 10:03:47;;;;;;;3.92;1.00;;;;;;;21.68;56.81;101304.53;6215435;28;20633;-73
2022/07/26 10:07:09;;;;;;;1.55;0.70;;;;;;;21.59;56.82;101313.94;6225680;28;20241;-73
2022/07/26 10:10:32;;;;;;;3.05;1.08;;;;;;;21.61;56.81;101317.31;6227565;28;20224;-73
2022/07/26 10:13:53;;;;;;;4.55;1.83;;;;;;;22.26;55.65;101317.03;6205090;28;20563;-72
2022/07/26 10:17:44;;;;;;;2.60;1.55;;;;;;;22.14;56.78;101316.75;6220989;28;20327;-73
2022/07/26 10:21:21;;;;;;;3.58;1.25;;;;;;;22.03;54.65;101317.31;6221539;28;20224;-73
2022/07/26 10:24:42;;;;;;;3.92;0.98;;;;;;;21.59;53.47;101319.41;6219490;28;20244;-74
2022/07/26 10:28:03;;;;;;;4.63;1.25;;;;;;;22.10;53.68;101323.69;6208809;28;20225;-74
2022/07/26 10:31:30;;;;;;;1.85;0.70;;;;;;;22.62;53.78;101330.59;6217732;28;20229;-73
2022/07/26 10:34:51;;;;;;;2.50;0.93;;;;;;;22.63;51.98;101330.44;6198547;28;20228;-72
2022/07/26 10:38:22;;;;;;;5.93;1.40;;;;;;;22.14;51.82;101326.88;6222946;28;20243;-73
2022/07/26 10:41:45;;;;;;;2.88;1.15;;;;;;;22.28;52.46;101329.53;6219995;28;20244;-73
2022/07/26 10:45:18;;;;;;;1.70;0.73;;;;;;;22.41;51.66;101330.66;6220539;28;20239;-73
2022/07/26 10:48:55;;;;;;;2.85;1.73;;;;;;;22.45;52.13;101329.19;6212478;28;20236;-72
2022/07/26 10:52:18;;;;;;;2.75;1.08;;;;;;;22.38;49.57;101336.56;6215921;28;20241;-73
2022/07/26 10:55:51;;;;;;;1.75;1.08;;;;;;;23.33;49.58;101332.81;6210595;28;20236;-74
2022/07/26 10:59:12;;;;;;;2.15;0.98;;;;;;;23.14;49.75;101333.59;6215186;28;20227;-74
2022/07/26 11:02:34;;;;;;;2.53;0.93;;;;;;;22.61;50.35;101353.66;6206489;28;20598;-78
2022/07/26 11:05:55;;;;;;;7.45;2.53;;;;;;;22.49;49.30;101355.25;6197570;28;20351;-71
2022/07/26 11:09:18;;;;;;;3.33;1.10;;;;;;;22.55;48.62;101362.69;6213438;28;20588;-70
2022/07/26 11:12:40;;;;;;;5.45;1.33;;;;;;;22.69;49.20;101365.34;6203889;28;20666;-72
2022/07/26 11:16:03;;;;;;;2.70;0.95;;;;;;;22.84;49.29;101362.47;6209650;28;20224;-73
2022/07/26 11:19:24;;;;;;;5.13;2.15;;;;;;;22.19;50.49;101373.84;6195226;28;20233;-73
2022/07/26 11:22:45;;;;;;;3.08;1.35;;;;;;;21.72;51.58;101373.59;6208034;28;20228;-73
2022/07/26 11:26:12;;;;;;;4.78;1.10;;;;;;;22.27;50.78;101379.19;6209860;28;20224;-72
2022/07/26 11:29:36;;;;;;;3.35;1.23;;;;;;;21.47;50.33;101379.47;6211845;28;20678;-72
2022/07/26 11:32:58;;;;;;;5.10;1.75;;;;;;;22.44;49.26;101375.09;6212328;28;20225;-73
2022/07/26 11:36:31;;;;;;;4.68;1.40;;;;;;;23.21;46.20;101372.13;6219867;28;20233;-69
2022/07/26 11:39:53;;;;;;;5.80;1.70;;;;;;;23.71;46.32;101378.03;6215155;28;20229;-75
2022/07/26 11:43:14;;;;;;;4.82;1.50;;;;;;;23.64;46.90;101374.41;6204882;28;20232;-76
2022/07/26 11:46:38;;;;;;;5.30;1.52;;;;;;;23.54;46.83;101381.34;6216917;28;20232;-77
2022/07/26 11:50:05;;;;;;;5.53;1.85;;;;;;;23.04;48.27;101385.41;6215952;28;20228;-75
2022/07/26 11:53:26;;;;;;;2.55;1.55;;;;;;;22.63;48.81;101385.41;6223548;28;20241;-76
2022/07/26 11:56:55;;;;;;;7.38;2.50;;;;;;;23.64;45.80;101379.03;6219041;28;20547;-74
2022/07/26 12:00:18;;;;;;;6.05;2.10;;;;;;;22.24;46.35;101385.06;6226649;28;20240;-78
2022/07/26 12:03:42;;;;;;;4.93;2.00;;;;;;;23.15;46.58;101397.72;6222772;28;20244;-75
2022/07/26 12:07:09;;;;;;;8.45;2.67;;;;;;;23.22;45.06;101413.19;6223849;28;20229;-74
2022/07/26 12:10:30;;;;;;;5.05;1.77;;;;;;;22.80;46.11;101407.91;6217252;28;20232;-74
2022/07/26 12:13:55;;;;;;;5.90;2.00;;;;;;;22.78;44.44;101391.59;6229770;28;20228;-73
2022/07/26 12:17:17;;;;;;;4.80;1.70;;;;;;;23.55;44.39;101403.16;6224129;28;20283;-72
2022/07/26 12:20:39;;;;;;;5.53;1.73;;;;;;;22.95;43.99;101411.38;6223791;28;20233;-72
2022/07/26 12:24:00;;;;;;;4.93;1.90;;;;;;;23.27;42.98;101416.19;6217398;28;20248;-71
2022/07/26 12:27:24;;;;;;;4.15;1.90;;;;;;;23.76;42.16;101405.75;6222293;28;20233;-76
2022/07/26 12:30:45;;;;;;;5.80;2.45;;;;;;;24.01;42.08;101414.25;6218971;28;20216;-75
2022/07/26 12:34:07;;;;;;;6.95;2.83;;;;;;;24.19;41.12;101419.19;6221464;28;20339;-74
2022/07/26 12:37:30;;;;;;;4.32;2.30;;;;;;;23.11;40.39;101413.78;6220522;28;20228;-72
2022/07/26 12:40:51;;;;;;;3.15;1.35;;;;;;;23.37;41.11;101411.16;6215584;28;20236;-76
2022/07/26 12:44:13;;;;;;;5.32;2.45;;;;;;;23.62;40.95;101425.22;6225852;28;20233;-73
2022/07/26 12:47:34;;;;;;;5.22;2.13;;;;;;;23.35;40.63;101427.03;6222947;28;20342;-71
2022/07/26 12:50:57;;;;;;;4.80;1.50;;;;;;;24.60;38.53;101415.13;6219785;28;20303;-74
2022/07/26 12:54:19;;;;;;;2.47;1.63;;;;;;;25.94;36.59;101414.19;6217987;28;20537;-74
2022/07/26 12:57:41;;;;;;;5.53;1.88;;;;;;;24.23;39.97;101428.72;6225119;28;20241;-72
2022/07/26 13:01:02;;;;;;;3.95;2.65;;;;;;;24.09;41.50;101436.16;6214746;28;20236;-78
2022/07/26 13:04:23;;;;;;;4.93;2.10;;;;;;;27.92;34.27;101419.28;6220885;28;20228;-73
2022/07/26 13:07:44;;;;;;;3.95;1.77;;;;;;;26.89;35.67;101424.00;6220678;28;20240;-72
2022/07/26 13:11:07;;;;;;;5.72;2.20;;;;;;;26.83;36.54;101434.09;6215829;28;20233;-70
2022/07/26 13:14:28;;;;;;;3.28;2.00;;;;;;;26.77;36.45;101440.53;6221782;28;20277;-74
2022/07/26 13:17:50;;;;;;;4.05;1.30;;;;;;;28.72;32.92;101437.19;6206280;28;20224;-72
2022/07/26 13:21:11;;;;;;;4.25;1.58;;;;;;;29.83;31.39;101448.84;6217397;28;20220;-70
2022/07/26 13:24:34;;;;;;;2.08;1.20;;;;;;;26.80;35.54;101453.94;6206408;28;23285;-71
2022/07/26 13:27:56;;;;;;;3.08;1.73;;;;;;;29.07;32.68;101443.56;6215966;28;20232;-71
2022/07/26 13:31:17;;;;;;;5.13;2.20;;;;;;;26.04;36.42;101444.94;6215104;28;20311;-75
2022/07/26 13:34:38;;;;;;;5.28;1.42;;;;;;;28.61;32.97;101449.13;6218337;28;20300;-79
2022/07/26 13:37:59;;;;;;;3.95;1.05;;;;;;;25.63;38.04;101447.34;6222823;28;20232;-75
2022/07/26 13:41:20;;;;;;;4.25;1.60;;;;;;;24.22;40.58;101454.63;6220523;28;20228;-76
2022/07/26 13:44:42;;;;;;;4.13;1.45;;;;;;;23.66;41.74;101460.41;6221873;28;20236;-70
2022/07/26 13:48:04;;;;;;;5.30;2.95;;;;;;;22.81;42.94;101461.84;6220778;28;20240;-72
2022/07/26 13:51:55;;;;;;;3.42;1.90;;;;;;;22.73;43.45;101462.88;6221553;28;20336;-72
2022/07/26 13:55:08;;;;;;;2.83;1.00;;;;;;;26.54;35.92;101459.66;6227697;28;20225;-75
2022/07/26 13:58:29;;;;;;;4.47;1.50;;;;;;;28.14;32.92;101462.06;6224587;28;20680;-74
2022/07/26 14:01:52;;;;;;;6.72;2.05;;;;;;;25.95;35.70;101462.84;6216630;28;20581;-71
2022/07/26 14:05:13;;;;;;;3.78;1.05;;;;;;;26.96;35.02;101471.84;6219042;28;21756;-71
2022/07/26 14:08:34;;;;;;;1.98;0.88;;;;;;;24.90;37.29;101476.22;6211951;28;20343;-75
2022/07/26 14:11:54;;;;;;;3.13;1.00;;;;;;;22.55;41.26;101483.63;6224525;28;20239;-73
2022/07/26 14:15:16;;;;;;;3.20;1.33;;;;;;;22.27;42.76;101487.19;6223523;28;20223;-72
2022/07/26 14:18:38;;;;;;;2.55;1.10;;;;;;;24.09;40.35;101493.16;6223289;28;20331;-73
2022/07/26 14:21:59;;;;;;;3.92;1.52;;;;;;;22.94;41.86;101501.31;6227833;28;20228;-73
2022/07/26 14:25:20;;;;;;;4.88;1.45;;;;;;;22.76;42.06;101517.44;6229740;28;20327;-74
2022/07/26 14:28:41;;;;;;;3.25;1.20;;;;;;;22.99;42.72;101512.53;6226300;28;20316;-72
2022/07/26 14:32:02;;;;;;;1.77;1.05;;;;;;;23.06;41.99;101498.81;6212009;28;20224;-73
2022/07/26 14:35:25;;;;;;;2.78;1.13;;;;;;;22.64;40.87;101505.28;6224317;28;20243;-73
2022/07/26 14:38:46;;;;;;;2.88;1.30;;;;;;;23.47;41.31;101509.84;6220271;28;20228;-74
2022/07/26 14:42:07;;;;;;;10.43;2.45;;;;;;;24.18;39.54;101519.44;6217487;28;20327;-73
2022/07/26 14:45:29;;;;;;;2.70;1.23;;;;;;;24.48;38.85;101510.59;6216051;28;20236;-75
2022/07/26 14:48:50;;;;;;;3.88;1.13;;;;;;;24.54;39.25;101508.91;6215364;28;20319;-73
2022/07/26 14:52:12;;;;;;;5.10;1.15;;;;;;;24.40;40.86;101510.81;6216595;28;20232;-74
2022/07/26 14:55:33;;;;;;;4.53;1.48;;;;;;;24.52;40.04;101513.78;6217311;28;20224;-73
2022/07/26 14:58:54;;;;;;;2.25;1.10;;;;;;;24.76;38.94;101506.81;6209686;28;20674;-72
2022/07/26 15:02:15;;;;;;;2.05;1.15;;;;;;;24.23;38.88;101512.28;6206431;28;20328;-75
2022/07/26 15:05:36;;;;;;;1.73;1.00;;;;;;;24.51;37.40;101517.59;6212696;28;20318;-72
2022/07/26 15:08:59;;;;;;;2.28;1.33;;;;;;;23.78;36.86;101519.31;6221499;28;20610;-72
2022/07/26 15:12:20;;;;;;;3.72;1.35;;;;;;;23.16;39.63;101528.72;6221346;28;20228;-73
2022/07/26 15:15:41;;;;;;;5.00;1.50;;;;;;;23.02;38.79;101527.78;6221492;28;20228;-73
2022/07/26 15:19:02;;;;;;;2.13;1.23;;;;;;;22.71;40.18;101522.72;6221607;28;20224;-72
2022/07/26 15:22:23;;;;;;;2.75;1.52;;;;;;;23.33;39.77;101525.47;6223365;28;20229;-74
2022/07/26 15:25:47;;;;;;;5.18;1.67;;;;;;;22.63;41.83;101513.75;6224276;28;20250;-73
2022/07/26 15:29:08;;;;;;;4.63;1.27;;;;;;;22.20;42.34;101526.63;6226503;28;20943;-74
2022/07/26 15:32:28;;;;;;;3.50;1.27;;;;;;;22.25;43.15;101524.16;6231767;28;20220;-73
2022/07/26 15:35:52;;;;;;;3.33;1.63;;;;;;;22.37;44.30;101522.56;6228945;28;20236;-72
2022/07/26 15:39:13;;;;;;;3.78;1.67;;;;;;;22.70;44.32;101531.13;6229533;28;20634;-72
2022/07/26 15:42:39;;;;;;;3.88;1.70;;;;;;;22.25;45.58;101524.16;6212696;28;20307;-72